createdAt,value
2019-02-20T00:00:10.225Z,6.10
2019-02-20T00:02:43.126Z,6.10
2019-02-20T00:05:14.405Z,6.10
2019-02-20T00:07:44.374Z,6.10
2019-02-20T00:10:14.458Z,6.00
2019-02-20T00:12:47.234Z,6.00
2019-02-20T00:15:17.224Z,6.00
2019-02-20T00:17:48.844Z,6.00
2019-02-20T00:20:18.845Z,6.00
2019-02-20T00:22:50.770Z,6.00
2019-02-20T00:25:21.886Z,6.10
2019-02-20T00:27:51.926Z,6.10
2019-02-20T00:30:26.342Z,6.20
2019-02-20T00:32:56.417Z,6.20
2019-02-20T00:35:27.656Z,6.10
2019-02-20T00:37:57.737Z,5.90
2019-02-20T00:40:27.716Z,5.70
2019-02-20T00:42:58.927Z,5.60
2019-02-20T00:45:58.243Z,5.70
2019-02-20T00:48:54.885Z,5.70
2019-02-20T00:51:51.728Z,5.90
2019-02-20T00:54:23.628Z,5.90
2019-02-20T00:56:53.716Z,5.90
2019-02-20T00:59:23.843Z,5.90
2019-02-20T01:01:55.115Z,5.90
2019-02-20T01:04:25.227Z,5.80
2019-02-20T01:06:55.377Z,5.70
2019-02-20T01:09:25.454Z,5.70
2019-02-20T01:11:55.695Z,5.60
2019-02-20T01:14:28.548Z,5.60
2019-02-20T01:16:59.851Z,5.60
2019-02-20T01:19:29.855Z,5.50
2019-02-20T01:21:59.927Z,5.60
2019-02-20T01:24:29.995Z,5.60
2019-02-20T01:27:00.028Z,5.60
2019-02-20T01:29:30.245Z,5.80
2019-02-20T01:32:01.722Z,5.70
2019-02-20T01:34:31.747Z,5.80
2019-02-20T01:37:05.539Z,5.90
2019-02-20T01:39:35.533Z,5.90
2019-02-20T01:42:05.585Z,5.80
2019-02-20T01:44:37.493Z,5.80
2019-02-20T01:47:07.625Z,5.80
2019-02-20T01:49:39.720Z,5.80
2019-02-20T01:52:09.694Z,5.70
2019-02-20T01:54:39.701Z,5.60
2019-02-20T01:57:11.278Z,5.60
2019-02-20T01:59:41.325Z,5.50
2019-02-20T02:02:11.475Z,5.50
2019-02-20T02:04:42.736Z,5.50
2019-02-20T02:07:12.878Z,5.50
2019-02-20T02:09:44.731Z,5.50
2019-02-20T02:12:14.729Z,5.50
2019-02-20T02:14:48.360Z,5.50
2019-02-20T02:17:18.480Z,5.50
2019-02-20T02:19:48.478Z,5.50
2019-02-20T02:22:18.550Z,5.40
2019-02-20T02:24:48.659Z,5.30
2019-02-20T02:27:18.718Z,5.30
2019-02-20T02:29:51.854Z,5.40
2019-02-20T02:32:23.520Z,5.40
2019-02-20T02:34:53.620Z,5.40
2019-02-20T02:37:23.615Z,5.40
2019-02-20T02:39:54.896Z,5.30
2019-02-20T02:42:26.189Z,5.30
2019-02-20T02:44:56.326Z,5.40
2019-02-20T02:47:26.342Z,5.40
2019-02-20T02:49:56.424Z,5.40
2019-02-20T02:52:30.191Z,5.30
2019-02-20T02:55:02.709Z,5.30
2019-02-20T02:57:32.801Z,5.30
2019-02-20T03:00:02.888Z,5.20
2019-02-20T03:02:32.979Z,5.10
2019-02-20T03:05:04.921Z,5.10
2019-02-20T03:07:34.981Z,5.10
2019-02-20T03:10:07.893Z,5.10
2019-02-20T03:12:39.551Z,5.10
2019-02-20T03:15:12.720Z,5.10
2019-02-20T03:17:42.784Z,5.10
2019-02-20T03:20:14.099Z,5.20
2019-02-20T03:22:44.228Z,5.20
2019-02-20T03:25:15.508Z,5.20
2019-02-20T03:27:45.574Z,5.20
2019-02-20T03:30:15.624Z,5.10
2019-02-20T03:32:45.914Z,5.10
2019-02-20T03:35:16.000Z,5.20
2019-02-20T03:37:48.125Z,5.20
2019-02-20T03:40:17.848Z,5.20
2019-02-20T03:42:49.661Z,5.20
2019-02-20T03:45:19.770Z,5.20
2019-02-20T03:47:53.959Z,5.10
2019-02-20T03:50:25.160Z,5.10
2019-02-20T03:52:56.841Z,5.10
2019-02-20T03:55:26.860Z,5.10
2019-02-20T03:57:56.848Z,5.00
2019-02-20T04:00:29.925Z,5.10
2019-02-20T04:03:00.152Z,5.10
2019-02-20T04:05:30.221Z,5.00
2019-02-20T04:08:02.337Z,4.90
2019-02-20T04:10:32.345Z,4.90
2019-02-20T04:13:06.485Z,5.00
2019-02-20T04:15:38.617Z,5.00
2019-02-20T04:18:11.197Z,5.00
2019-02-20T04:20:42.587Z,5.10
2019-02-20T04:23:14.607Z,5.10
2019-02-20T04:25:44.383Z,5.10
2019-02-20T04:28:15.493Z,5.10
2019-02-20T04:30:45.633Z,5.10
2019-02-20T04:33:16.922Z,5.10
2019-02-20T04:35:47.059Z,5.20
2019-02-20T04:38:17.048Z,5.10
2019-02-20T04:40:51.260Z,5.00
2019-02-20T04:43:21.340Z,5.00
2019-02-20T04:48:15.159Z,5.00
2019-02-20T04:50:45.150Z,4.80
2019-02-20T04:53:15.320Z,4.60
2019-02-20T04:55:48.244Z,4.40
2019-02-20T04:58:21.508Z,4.40
2019-02-20T05:00:51.581Z,4.40
2019-02-20T05:03:23.247Z,4.40
2019-02-20T05:05:53.641Z,4.40
2019-02-20T05:08:24.848Z,4.40
2019-02-20T05:10:57.882Z,4.40
2019-02-20T05:13:27.973Z,4.50
2019-02-20T05:15:59.090Z,4.50
2019-02-20T05:18:29.161Z,4.60
2019-02-20T05:21:00.812Z,4.60
2019-02-20T05:23:30.878Z,4.60
2019-02-20T05:26:00.876Z,4.60
2019-02-20T05:28:34.708Z,4.60
2019-02-20T05:31:06.542Z,4.60
2019-02-20T05:33:36.834Z,4.50
2019-02-20T05:36:06.914Z,4.50
2019-02-20T05:38:37.649Z,4.60
2019-02-20T05:41:09.295Z,4.60
2019-02-20T05:43:39.404Z,4.60
2019-02-20T05:46:11.384Z,4.60
2019-02-20T05:48:42.574Z,4.60
2019-02-20T05:51:13.875Z,4.60
2019-02-20T05:53:48.086Z,4.50
2019-02-20T05:56:18.190Z,4.40
2019-02-20T05:58:48.318Z,4.30
2019-02-20T06:01:21.325Z,4.40
2019-02-20T06:03:52.625Z,4.40
2019-02-20T06:06:23.885Z,4.60
2019-02-20T06:08:54.301Z,4.60
2019-02-20T06:11:26.749Z,4.60
2019-02-20T06:13:56.394Z,4.60
2019-02-20T06:16:29.413Z,4.60
2019-02-20T06:19:04.103Z,4.60
2019-02-20T06:21:35.764Z,4.60
2019-02-20T06:24:07.468Z,4.70
2019-02-20T06:26:37.545Z,4.60
2019-02-20T06:29:10.858Z,4.70
2019-02-20T06:31:41.005Z,4.80
2019-02-20T06:34:11.155Z,4.80
2019-02-20T06:36:41.282Z,4.80
2019-02-20T06:39:15.664Z,4.70
2019-02-20T06:41:45.678Z,4.70
2019-02-20T06:44:17.319Z,4.80
2019-02-20T06:46:47.419Z,4.90
2019-02-20T06:49:17.518Z,5.00
2019-02-20T06:51:48.951Z,5.10
2019-02-20T06:54:19.058Z,5.20
2019-02-20T06:56:52.148Z,5.20
2019-02-20T06:59:24.301Z,5.20
2019-02-20T07:02:00.643Z,5.20
2019-02-20T07:04:33.377Z,5.30
2019-02-20T07:07:18.157Z,5.30
2019-02-20T07:10:32.297Z,5.30
2019-02-20T07:13:41.530Z,5.30
2019-02-20T07:16:58.866Z,5.30
2019-02-20T07:20:01.366Z,5.40
2019-02-20T07:23:25.204Z,5.40
2019-02-20T07:26:31.239Z,5.50
2019-02-20T07:29:25.125Z,5.40
2019-02-20T07:31:56.326Z,5.30
2019-02-20T07:34:26.432Z,5.40
2019-02-20T07:36:58.094Z,5.30
2019-02-20T07:39:28.104Z,5.30
2019-02-20T07:41:59.396Z,5.70
2019-02-20T07:44:32.267Z,6.40
2019-02-20T07:47:06.364Z,8.30
2019-02-20T07:49:38.205Z,9.80
2019-02-20T07:52:10.927Z,11.10
2019-02-20T07:54:44.667Z,11.60
2019-02-20T07:57:16.313Z,11.50
2019-02-20T07:59:46.326Z,10.90
2019-02-20T08:02:16.351Z,10.30
2019-02-20T08:04:46.426Z,9.70
2019-02-20T08:07:16.485Z,9.00
2019-02-20T08:09:52.163Z,8.50
2019-02-20T08:12:22.338Z,8.10
2019-02-20T08:14:53.723Z,8.00
2019-02-20T08:17:24.105Z,7.90
2019-02-20T08:19:54.179Z,7.80
2019-02-20T08:22:24.173Z,7.90
2019-02-20T08:24:55.713Z,8.20
2019-02-20T08:27:25.787Z,8.40
2019-02-20T08:29:58.318Z,8.40
2019-02-20T08:32:28.869Z,8.60
2019-02-20T08:34:58.937Z,8.50
2019-02-20T08:37:29.109Z,8.50
2019-02-20T08:40:04.921Z,8.50
2019-02-20T08:42:35.028Z,8.60
2019-02-20T08:45:08.539Z,8.70
2019-02-20T08:47:39.004Z,9.00
2019-02-20T08:50:13.989Z,9.60
2019-02-20T08:52:47.075Z,10.30
2019-02-20T08:55:31.555Z,10.80
2019-02-20T08:57:57.044Z,11.00
2019-02-20T09:00:27.165Z,10.90
2019-02-20T09:02:57.251Z,11.00
2019-02-20T09:05:27.363Z,11.20
2019-02-20T09:07:57.505Z,11.40
2019-02-20T09:10:27.615Z,11.80
2019-02-20T09:12:57.691Z,11.80
2019-02-20T09:15:27.773Z,11.70
2019-02-20T09:17:57.794Z,12.30
2019-02-20T09:20:27.867Z,12.90
2019-02-20T09:22:57.989Z,13.30
2019-02-20T09:25:28.160Z,13.10
2019-02-20T09:27:58.282Z,12.60
2019-02-20T09:30:29.871Z,12.10
2019-02-20T09:33:00.304Z,11.70
2019-02-20T09:35:30.370Z,11.40
2019-02-20T09:38:00.456Z,11.10
2019-02-20T09:40:30.554Z,11.00
2019-02-20T09:43:00.662Z,10.60
2019-02-20T09:45:30.748Z,10.50
2019-02-20T09:48:00.905Z,10.40
2019-02-20T09:50:30.932Z,10.40
2019-02-20T09:53:01.030Z,10.30
2019-02-20T09:55:31.124Z,10.40
2019-02-20T09:58:01.215Z,10.40
2019-02-20T10:00:31.300Z,10.50
2019-02-20T10:03:01.404Z,10.60
2019-02-20T10:05:31.411Z,10.80
2019-02-20T10:08:01.535Z,10.90
2019-02-20T10:10:31.698Z,11.00
2019-02-20T10:13:01.803Z,11.10
2019-02-20T10:15:31.884Z,11.10
2019-02-20T10:18:01.898Z,11.10
2019-02-20T10:20:31.980Z,11.10
2019-02-20T10:23:02.084Z,10.90
2019-02-20T10:25:32.185Z,10.90
2019-02-20T10:28:02.352Z,10.60
2019-02-20T10:30:32.448Z,10.30
2019-02-20T10:33:02.646Z,10.50
2019-02-20T10:35:32.728Z,10.90
2019-02-20T10:38:02.800Z,11.20
2019-02-20T10:40:32.918Z,11.60
2019-02-20T10:43:03.627Z,12.00
2019-02-20T10:45:33.856Z,12.30
2019-02-20T10:48:03.875Z,12.40
2019-02-20T10:50:33.959Z,12.50
2019-02-20T10:53:04.066Z,12.50
2019-02-20T10:55:34.147Z,12.60
2019-02-20T10:58:04.237Z,12.90
2019-02-20T11:00:34.524Z,13.10
2019-02-20T11:03:04.531Z,13.30
2019-02-20T11:05:34.545Z,13.60
2019-02-20T11:08:04.627Z,13.70
2019-02-20T11:10:34.632Z,13.90
2019-02-20T11:13:04.724Z,14.00
2019-02-20T11:15:34.831Z,13.90
2019-02-20T11:18:04.931Z,13.60
2019-02-20T11:20:35.021Z,13.60
2019-02-20T11:23:07.033Z,13.40
2019-02-20T11:25:37.130Z,13.30
2019-02-20T11:28:07.236Z,13.10
2019-02-20T11:30:42.761Z,12.90
2019-02-20T11:33:09.442Z,12.90
2019-02-20T11:35:39.538Z,12.80
2019-02-20T11:38:09.735Z,12.70
2019-02-20T11:40:39.721Z,12.40
2019-02-20T11:43:09.732Z,12.40
2019-02-20T11:45:41.288Z,12.30
2019-02-20T11:48:12.222Z,12.30
2019-02-20T11:50:45.569Z,12.40
2019-02-20T11:53:15.746Z,12.60
2019-02-20T11:55:45.764Z,12.80
2019-02-20T11:58:15.854Z,13.10
2019-02-20T12:00:45.942Z,13.30
2019-02-20T12:03:16.044Z,13.40
2019-02-20T12:05:46.238Z,13.40
2019-02-20T12:08:16.646Z,13.50
2019-02-20T12:10:46.876Z,13.40
2019-02-20T12:13:16.912Z,13.30
2019-02-20T12:15:47.072Z,13.30
2019-02-20T12:18:17.746Z,13.40
2019-02-20T12:20:49.076Z,13.50
2019-02-20T12:23:19.096Z,13.60
2019-02-20T12:25:49.178Z,13.80
2019-02-20T12:28:19.232Z,14.00
2019-02-20T12:30:50.398Z,14.20
2019-02-20T12:33:20.502Z,14.40
2019-02-20T12:35:50.580Z,14.50
2019-02-20T12:38:20.679Z,14.60
2019-02-20T12:40:52.344Z,14.60
2019-02-20T12:43:24.060Z,14.60
2019-02-20T12:45:55.528Z,14.40
2019-02-20T12:48:25.634Z,14.60
2019-02-20T12:50:57.583Z,14.70
2019-02-20T12:53:28.708Z,14.80
2019-02-20T12:55:58.863Z,14.70
2019-02-20T12:58:28.889Z,14.60
2019-02-20T13:01:01.431Z,14.40
2019-02-20T13:03:31.559Z,14.30
2019-02-20T13:06:04.548Z,14.20
2019-02-20T13:08:35.920Z,14.10
2019-02-20T13:11:06.019Z,14.10
2019-02-20T13:13:36.701Z,14.30
2019-02-20T13:16:09.655Z,14.40
2019-02-20T13:18:40.116Z,14.50
2019-02-20T13:21:11.103Z,14.40
2019-02-20T13:23:47.077Z,14.30
2019-02-20T13:26:16.449Z,14.10
2019-02-20T13:28:46.569Z,13.90
2019-02-20T13:31:16.733Z,13.90
2019-02-20T13:33:46.937Z,13.90
2019-02-20T13:36:18.177Z,14.10
2019-02-20T13:38:51.820Z,14.10
2019-02-20T13:41:21.979Z,14.20
2019-02-20T13:43:52.125Z,14.20
2019-02-20T13:46:25.611Z,14.00
2019-02-20T13:48:58.585Z,13.90
2019-02-20T13:51:37.436Z,13.60
2019-02-20T13:54:10.025Z,13.20
2019-02-20T13:56:43.151Z,12.60
2019-02-20T13:59:14.566Z,12.30
2019-02-20T14:01:48.812Z,12.20
2019-02-20T14:04:19.199Z,12.10
2019-02-20T14:06:49.371Z,12.00
2019-02-20T14:09:19.594Z,12.00
2019-02-20T14:11:49.761Z,11.90
2019-02-20T14:14:19.927Z,11.90
2019-02-20T14:16:51.682Z,11.90
2019-02-20T14:19:21.781Z,12.00
2019-02-20T14:21:51.972Z,12.10
2019-02-20T14:24:22.132Z,12.10
2019-02-20T14:26:55.921Z,12.10
2019-02-20T14:29:25.740Z,12.20
2019-02-20T14:31:56.235Z,12.40
2019-02-20T14:34:27.524Z,12.30
2019-02-20T14:37:02.906Z,12.30
2019-02-20T14:39:32.285Z,12.20
2019-02-20T14:42:04.338Z,12.10
2019-02-20T14:44:35.933Z,12.00
2019-02-20T14:47:06.120Z,12.00
2019-02-20T14:49:39.092Z,12.00
2019-02-20T14:52:09.256Z,12.00
2019-02-20T14:54:41.217Z,11.90
2019-02-20T14:57:19.442Z,11.90
2019-02-20T14:59:44.224Z,11.90
2019-02-20T15:02:14.467Z,11.80
2019-02-20T15:04:46.194Z,11.90
2019-02-20T15:07:16.360Z,11.80
2019-02-20T15:09:46.567Z,11.80
2019-02-20T15:12:16.927Z,11.70
2019-02-20T15:14:47.695Z,11.60
2019-02-20T15:17:17.895Z,11.50
2019-02-20T15:19:48.079Z,11.20
2019-02-20T15:22:18.343Z,11.10
2019-02-20T15:24:48.497Z,11.00
2019-02-20T15:27:19.244Z,10.90
2019-02-20T15:29:50.429Z,10.70
2019-02-20T15:32:20.528Z,10.70
2019-02-20T15:34:50.740Z,10.70
2019-02-20T15:37:22.104Z,10.60
2019-02-20T15:39:52.613Z,10.40
2019-02-20T15:42:22.827Z,10.30
2019-02-20T15:44:53.041Z,10.10
2019-02-20T15:47:23.291Z,10.00
2019-02-20T15:49:53.497Z,9.80
2019-02-20T15:52:23.663Z,9.60
2019-02-20T15:54:54.635Z,9.60
2019-02-20T15:57:24.830Z,9.50
2019-02-20T15:59:55.070Z,9.40
2019-02-20T16:02:25.264Z,9.30
2019-02-20T16:04:55.480Z,9.20
2019-02-20T16:07:25.699Z,9.10
2019-02-20T16:09:55.979Z,8.90
2019-02-20T16:12:26.245Z,8.80
2019-02-20T16:14:56.419Z,8.60
2019-02-20T16:17:26.585Z,8.50
2019-02-20T16:19:56.799Z,8.30
2019-02-20T16:22:28.505Z,8.20
2019-02-20T16:24:58.651Z,8.00
2019-02-20T16:27:28.920Z,7.90
2019-02-20T16:29:59.135Z,7.80
2019-02-20T16:32:29.351Z,7.60
2019-02-20T16:34:59.590Z,7.50
2019-02-20T16:37:30.194Z,7.30
2019-02-20T16:40:01.370Z,7.20
2019-02-20T16:42:31.562Z,7.10
2019-02-20T16:45:01.843Z,7.10
2019-02-20T16:47:32.281Z,6.90
2019-02-20T16:50:02.510Z,6.80
2019-02-20T16:52:33.130Z,6.70
2019-02-20T16:55:03.342Z,6.60
2019-02-20T16:57:33.562Z,6.60
2019-02-20T17:00:03.934Z,6.60
2019-02-20T17:02:35.155Z,6.60
2019-02-20T17:05:13.111Z,6.60
2019-02-20T17:07:39.280Z,6.50
2019-02-20T17:10:10.211Z,6.60
2019-02-20T17:12:44.026Z,6.60
2019-02-20T17:15:23.295Z,6.60
2019-02-20T17:17:54.080Z,6.60
2019-02-20T17:20:26.363Z,6.60
2019-02-20T17:22:56.793Z,6.60
2019-02-20T17:25:27.379Z,6.60
2019-02-20T17:28:05.476Z,6.60
2019-02-20T17:30:32.190Z,6.50
2019-02-20T17:33:04.472Z,6.40
2019-02-20T17:35:37.309Z,6.40
2019-02-20T17:38:07.849Z,6.30
2019-02-20T17:40:54.332Z,6.20
2019-02-20T17:43:26.436Z,6.10
2019-02-20T17:45:56.346Z,6.20
2019-02-20T17:48:28.474Z,6.20
2019-02-20T17:50:58.378Z,6.30
2019-02-20T17:53:28.918Z,6.30
2019-02-20T17:55:59.174Z,6.40
2019-02-20T17:58:29.642Z,6.40
2019-02-20T18:01:01.071Z,6.50
2019-02-20T18:03:31.296Z,6.50
2019-02-20T18:06:01.528Z,6.40
2019-02-20T18:08:31.748Z,6.40
2019-02-20T18:11:02.769Z,6.40
2019-02-20T18:13:33.003Z,6.40
2019-02-20T18:16:03.288Z,6.40
2019-02-20T18:18:33.539Z,6.40
2019-02-20T18:21:04.137Z,6.30
2019-02-20T18:23:35.876Z,6.30
2019-02-20T18:26:06.251Z,6.40
2019-02-20T18:28:36.561Z,6.30
2019-02-20T18:31:06.837Z,6.30
2019-02-20T18:33:42.904Z,6.30
2019-02-20T18:36:13.145Z,6.20
2019-02-20T18:38:45.173Z,6.30
2019-02-20T18:41:16.649Z,6.20
2019-02-20T18:43:50.732Z,6.10
2019-02-20T18:46:24.557Z,6.10
2019-02-20T18:48:54.844Z,6.10
2019-02-20T18:51:27.633Z,6.00
2019-02-20T18:53:57.363Z,6.00
2019-02-20T18:56:27.725Z,6.10
2019-02-20T18:58:58.864Z,6.10
2019-02-20T19:01:29.340Z,6.20
2019-02-20T19:04:01.192Z,6.10
2019-02-20T19:06:32.839Z,6.10
2019-02-20T19:09:26.955Z,6.00
2019-02-20T19:12:43.022Z,5.80
2019-02-20T19:16:01.890Z,5.80
2019-02-20T19:19:22.413Z,5.70
2019-02-20T19:22:43.088Z,5.70
2019-02-20T19:25:48.805Z,5.70
2019-02-20T19:28:49.022Z,5.60
2019-02-20T19:32:02.648Z,5.60
2019-02-20T19:35:07.125Z,5.50
2019-02-20T19:38:14.341Z,5.40
2019-02-20T19:41:23.325Z,5.30
2019-02-20T19:44:10.972Z,5.10
2019-02-20T19:47:19.831Z,4.60
2019-02-20T19:50:45.038Z,5.00
2019-02-20T19:53:43.818Z,4.90
2019-02-20T19:57:04.162Z,4.70
2019-02-20T19:59:52.750Z,4.70
2019-02-20T20:02:53.048Z,4.60
2019-02-20T20:06:06.242Z,4.50
2019-02-20T20:09:24.265Z,4.40
2019-02-20T20:12:41.314Z,4.40
2019-02-20T20:15:47.326Z,4.30
2019-02-20T20:19:03.812Z,4.20
2019-02-20T20:22:11.004Z,4.30
2019-02-20T20:25:25.940Z,4.10
2019-02-20T20:28:34.920Z,4.10
2019-02-20T20:31:40.493Z,4.10
2019-02-20T20:34:50.861Z,4.10
2019-02-20T20:37:56.126Z,4.10
2019-02-20T20:40:59.463Z,4.10
2019-02-20T20:44:06.588Z,4.10
2019-02-20T20:47:08.137Z,4.10
2019-02-20T20:49:59.502Z,4.20
2019-02-20T20:52:46.719Z,4.10
2019-02-20T20:55:46.824Z,4.10
2019-02-20T20:58:57.157Z,4.20
2019-02-20T21:01:59.797Z,4.10
2019-02-20T21:05:26.455Z,4.00
2019-02-20T21:08:26.327Z,4.00
2019-02-20T21:12:05.739Z,4.00
2019-02-20T21:14:55.690Z,4.00
2019-02-20T21:18:05.564Z,3.80
2019-02-20T21:20:59.612Z,3.80
2019-02-20T21:24:12.413Z,3.80
2019-02-20T21:27:06.402Z,3.70
2019-02-20T21:30:14.138Z,3.60
2019-02-20T21:33:17.680Z,3.60
2019-02-20T21:36:16.352Z,3.40
2019-02-20T21:39:28.831Z,3.30
2019-02-20T21:42:19.642Z,3.40
2019-02-20T21:45:40.648Z,3.40
2019-02-20T21:48:43.873Z,3.30
2019-02-20T21:51:52.387Z,3.30
2019-02-20T21:55:02.082Z,3.40
2019-02-20T21:58:07.658Z,3.40
2019-02-20T22:00:51.946Z,3.40
2019-02-20T22:03:56.156Z,3.40
2019-02-20T22:07:02.979Z,3.40
2019-02-20T22:10:02.045Z,3.40
2019-02-20T22:13:03.289Z,3.50
2019-02-20T22:16:00.755Z,3.60
2019-02-20T22:19:01.721Z,3.70
2019-02-20T22:22:24.963Z,3.70
2019-02-20T22:25:29.822Z,3.70
2019-02-20T22:28:40.113Z,3.70
2019-02-20T22:31:49.374Z,3.80
2019-02-20T22:34:36.861Z,3.80
2019-02-20T22:37:45.141Z,3.70
2019-02-20T22:40:41.514Z,3.60
2019-02-20T22:44:14.933Z,3.50
2019-02-20T22:47:06.795Z,3.40
2019-02-20T22:50:06.950Z,3.50
2019-02-20T22:53:00.724Z,3.50
2019-02-20T22:56:01.402Z,3.50
2019-02-20T22:59:08.453Z,3.50
2019-02-20T23:02:03.589Z,3.50
2019-02-20T23:04:59.117Z,3.60
2019-02-20T23:08:02.006Z,3.60
2019-02-20T23:11:11.411Z,3.60
2019-02-20T23:13:57.156Z,3.70
2019-02-20T23:16:31.582Z,3.80
2019-02-20T23:19:00.004Z,3.80
2019-02-20T23:21:30.032Z,3.90
2019-02-20T23:24:01.742Z,3.90
2019-02-20T23:26:31.807Z,3.80
2019-02-20T23:29:01.825Z,3.80
2019-02-20T23:31:33.478Z,3.80
2019-02-20T23:34:07.796Z,3.80
2019-02-20T23:36:38.162Z,3.80
2019-02-20T23:39:12.226Z,3.80
2019-02-20T23:41:43.924Z,3.80
2019-02-20T23:44:13.957Z,3.80
2019-02-20T23:46:44.016Z,3.80
2019-02-20T23:49:15.876Z,3.80
2019-02-20T23:51:45.950Z,3.70
2019-02-20T23:54:16.077Z,3.70
2019-02-20T23:56:46.074Z,3.70
2019-02-20T23:59:16.927Z,3.70
